createdAt,value
2022-10-23T00:01:45.154Z,1.70
2022-10-23T00:04:14.715Z,2.57
2022-10-23T00:06:43.367Z,2.53
2022-10-23T00:09:17.975Z,1.43
2022-10-23T00:11:48.574Z,1.87
2022-10-23T00:14:17.645Z,1.50
2022-10-23T00:16:45.746Z,1.17
2022-10-23T00:19:13.838Z,1.60
2022-10-23T00:21:41.822Z,1.37
2022-10-23T00:26:42.826Z,2.27
2022-10-23T00:29:12.265Z,1.70
2022-10-23T00:31:40.065Z,1.27
2022-10-23T00:34:09.169Z,2.23
2022-10-23T00:36:38.601Z,2.83
2022-10-23T00:39:07.025Z,2.40
2022-10-23T00:41:34.632Z,2.03
2022-10-23T00:44:07.065Z,6.57
2022-10-23T00:46:37.742Z,2.30
2022-10-23T00:49:06.988Z,3.43
2022-10-23T00:51:39.377Z,1.93
2022-10-23T00:54:24.844Z,2.30
2022-10-23T00:56:55.545Z,2.10
2022-10-23T00:59:23.336Z,3.63
2022-10-23T01:01:52.788Z,3.20
2022-10-23T01:04:21.018Z,2.87
2022-10-23T01:06:59.447Z,2.73
2022-10-23T01:09:32.675Z,2.07
2022-10-23T01:12:10.011Z,2.40
2022-10-23T01:14:43.973Z,2.30
2022-10-23T01:17:19.646Z,4.87
2022-10-23T01:20:02.333Z,2.63
2022-10-23T01:22:47.792Z,3.33
2022-10-23T01:25:24.637Z,1.30
2022-10-23T01:28:01.198Z,1.43
2022-10-23T01:30:30.819Z,1.40
2022-10-23T01:33:05.542Z,1.23
2022-10-23T01:35:38.097Z,1.27
2022-10-23T01:38:12.382Z,1.50
2022-10-23T01:40:47.780Z,0.87
2022-10-23T01:43:20.995Z,0.70
2022-10-23T01:45:52.049Z,1.10
2022-10-23T01:48:25.670Z,1.33
2022-10-23T01:50:56.435Z,1.07
2022-10-23T01:53:27.038Z,1.23
2022-10-23T01:55:56.389Z,0.93
2022-10-23T01:58:27.465Z,1.80
2022-10-23T02:01:00.218Z,1.33
2022-10-23T02:03:30.751Z,0.80
2022-10-23T02:05:58.817Z,1.53
2022-10-23T02:08:26.603Z,1.73
2022-10-23T02:11:03.374Z,1.40
2022-10-23T02:13:39.223Z,2.90
2022-10-23T02:16:16.575Z,2.17
2022-10-23T02:18:52.401Z,1.07
2022-10-23T02:21:28.497Z,1.47
2022-10-23T02:24:00.490Z,1.00
2022-10-23T02:26:35.211Z,1.53
2022-10-23T02:29:10.036Z,2.57
2022-10-23T02:31:37.908Z,3.40
2022-10-23T02:34:05.687Z,3.13
2022-10-23T02:36:33.285Z,2.20
2022-10-23T02:39:00.900Z,0.83
2022-10-23T02:41:40.548Z,1.53
2022-10-23T02:44:24.271Z,0.87
2022-10-23T02:46:58.516Z,2.33
2022-10-23T02:49:32.575Z,1.43
2022-10-23T02:52:09.831Z,0.80
2022-10-23T02:55:04.011Z,1.33
2022-10-23T02:57:35.902Z,0.87
2022-10-23T03:00:09.070Z,1.60
2022-10-23T03:02:40.820Z,2.20
2022-10-23T03:05:12.209Z,0.73
2022-10-23T03:07:40.870Z,0.60
2022-10-23T03:10:10.213Z,1.70
2022-10-23T03:12:38.830Z,1.87
2022-10-23T03:15:09.281Z,1.30
2022-10-23T03:17:36.878Z,0.80
2022-10-23T03:20:05.021Z,1.20
2022-10-23T03:22:32.635Z,1.23
2022-10-23T03:25:00.248Z,0.80
2022-10-23T03:29:56.421Z,1.90
2022-10-23T03:32:25.361Z,1.37
2022-10-23T03:34:52.988Z,1.07
2022-10-23T03:37:20.584Z,1.00
2022-10-23T03:39:48.153Z,0.90
2022-10-23T03:42:15.778Z,1.10
2022-10-23T03:44:43.435Z,1.07
2022-10-23T03:47:11.958Z,2.23
2022-10-23T03:49:41.036Z,1.00
2022-10-23T03:52:09.359Z,0.97
2022-10-23T03:54:36.970Z,1.30
2022-10-23T03:57:04.811Z,1.53
2022-10-23T03:59:32.456Z,2.20
2022-10-23T04:02:00.263Z,1.23
2022-10-23T04:04:28.203Z,0.97
2022-10-23T04:06:57.153Z,0.83
2022-10-23T04:09:24.852Z,0.60
2022-10-23T04:11:52.459Z,1.10
2022-10-23T04:14:20.035Z,1.00
2022-10-23T04:16:47.570Z,0.60
2022-10-23T04:19:17.140Z,0.63
2022-10-23T04:21:44.842Z,1.67
2022-10-23T04:24:14.024Z,0.60
2022-10-23T04:26:41.742Z,0.60
2022-10-23T04:29:09.332Z,0.60
2022-10-23T04:31:36.931Z,2.10
2022-10-23T04:36:37.134Z,1.47
2022-10-23T04:39:04.921Z,2.23
2022-10-23T04:41:33.812Z,0.63
2022-10-23T04:44:01.423Z,0.50
2022-10-23T04:46:29.220Z,1.83
2022-10-23T04:48:56.782Z,0.50
2022-10-23T04:51:24.512Z,0.70
2022-10-23T04:53:52.060Z,1.17
2022-10-23T04:56:19.642Z,0.50
2022-10-23T04:58:48.564Z,0.67
2022-10-23T05:01:16.310Z,0.93
2022-10-23T05:03:44.140Z,0.67
2022-10-23T05:06:11.750Z,0.83
2022-10-23T05:08:39.387Z,0.97
2022-10-23T05:11:07.019Z,2.80
2022-10-23T05:13:34.581Z,1.40
2022-10-23T05:16:04.047Z,0.60
2022-10-23T05:18:35.704Z,0.80
2022-10-23T05:21:07.573Z,0.90
2022-10-23T05:23:37.524Z,0.97
2022-10-23T05:26:06.233Z,2.00
2022-10-23T05:28:33.804Z,0.77
2022-10-23T05:31:04.310Z,0.67
2022-10-23T05:33:32.838Z,0.70
2022-10-23T05:36:01.701Z,0.63
2022-10-23T05:38:31.495Z,0.80
2022-10-23T05:40:59.140Z,0.67
2022-10-23T05:43:27.312Z,0.87
2022-10-23T05:45:54.972Z,0.63
2022-10-23T05:48:34.315Z,0.87
2022-10-23T05:51:06.576Z,3.63
2022-10-23T05:53:36.125Z,0.60
2022-10-23T05:56:08.094Z,0.80
2022-10-23T05:58:36.215Z,0.70
2022-10-23T06:01:07.201Z,0.90
2022-10-23T06:03:36.824Z,2.23
2022-10-23T06:06:05.159Z,0.80
2022-10-23T06:08:33.511Z,0.80
2022-10-23T06:11:07.269Z,0.80
2022-10-23T06:13:35.046Z,0.70
2022-10-23T06:16:09.931Z,0.93
2022-10-23T06:18:39.050Z,0.80
2022-10-23T06:21:07.170Z,2.40
2022-10-23T06:23:36.237Z,0.43
2022-10-23T06:26:04.234Z,1.10
2022-10-23T06:28:32.383Z,1.77
2022-10-23T06:31:00.019Z,1.20
2022-10-23T06:33:27.564Z,2.43
2022-10-23T06:35:58.287Z,1.57
2022-10-23T06:38:25.889Z,1.27
2022-10-23T06:40:54.082Z,1.60
2022-10-23T06:43:21.776Z,1.97
2022-10-23T06:45:49.619Z,2.50
2022-10-23T06:48:17.477Z,2.00
2022-10-23T06:50:45.069Z,1.23
2022-10-23T06:53:14.144Z,1.63
2022-10-23T06:55:41.717Z,1.00
2022-10-23T06:58:10.775Z,1.10
2022-10-23T07:00:38.910Z,1.10
2022-10-23T07:03:08.446Z,1.57
2022-10-23T07:05:36.315Z,1.10
2022-10-23T07:08:06.042Z,1.23
2022-10-23T07:10:35.398Z,1.13
2022-10-23T07:13:03.223Z,1.10
2022-10-23T07:15:31.042Z,0.90
2022-10-23T07:17:58.680Z,1.13
2022-10-23T07:20:26.408Z,2.30
2022-10-23T07:22:55.297Z,1.70
2022-10-23T07:25:23.745Z,2.13
2022-10-23T07:27:55.316Z,1.87
2022-10-23T07:30:24.235Z,1.20
2022-10-23T07:32:52.253Z,1.17
2022-10-23T07:35:19.987Z,1.30
2022-10-23T07:37:48.555Z,1.57
2022-10-23T07:40:17.254Z,0.80
2022-10-23T07:42:44.810Z,1.10
2022-10-23T07:45:13.758Z,1.47
2022-10-23T07:47:41.682Z,1.90
2022-10-23T07:50:10.407Z,1.53
2022-10-23T07:52:37.984Z,1.13
2022-10-23T07:55:06.352Z,1.70
2022-10-23T07:57:33.968Z,2.47
2022-10-23T08:00:01.555Z,1.87
2022-10-23T08:02:30.479Z,1.47
2022-10-23T08:04:58.049Z,0.90
2022-10-23T08:07:25.626Z,1.37
2022-10-23T08:09:53.646Z,1.53
2022-10-23T08:12:21.264Z,1.20
2022-10-23T08:14:48.961Z,1.37
2022-10-23T08:17:16.525Z,1.20
2022-10-23T08:19:47.119Z,1.20
2022-10-23T08:22:14.963Z,1.57
2022-10-23T08:24:42.549Z,1.80
2022-10-23T08:27:10.094Z,1.83
2022-10-23T08:29:37.707Z,1.20
2022-10-23T08:32:05.703Z,1.10
2022-10-23T08:34:33.264Z,1.50
2022-10-23T08:37:02.223Z,1.37
2022-10-23T08:39:29.791Z,1.70
2022-10-23T08:41:57.419Z,1.57
2022-10-23T08:44:31.999Z,1.10
2022-10-23T08:47:06.586Z,1.83
2022-10-23T08:49:48.739Z,0.97
2022-10-23T08:52:24.403Z,0.80
2022-10-23T08:55:03.670Z,0.77
2022-10-23T08:57:40.036Z,0.80
2022-10-23T09:00:14.904Z,0.70
2022-10-23T09:02:45.991Z,1.23
2022-10-23T09:05:18.127Z,1.20
2022-10-23T09:08:00.900Z,0.67
2022-10-23T09:10:58.334Z,1.73
2022-10-23T09:13:45.871Z,1.30
2022-10-23T09:16:20.407Z,1.47
2022-10-23T09:18:50.662Z,1.33
2022-10-23T09:21:18.482Z,0.83
2022-10-23T09:23:47.394Z,0.60
2022-10-23T09:26:16.804Z,1.10
2022-10-23T09:28:48.947Z,0.83
2022-10-23T09:31:17.512Z,1.73
2022-10-23T09:33:55.723Z,0.97
2022-10-23T09:36:24.473Z,0.70
2022-10-23T09:38:55.121Z,1.33
2022-10-23T09:41:25.684Z,1.03
2022-10-23T09:44:04.040Z,0.80
2022-10-23T09:46:39.450Z,1.77
2022-10-23T09:49:08.067Z,1.30
2022-10-23T09:51:35.785Z,0.73
2022-10-23T09:54:05.057Z,2.00
2022-10-23T09:56:35.629Z,1.90
2022-10-23T09:59:06.330Z,0.90
2022-10-23T10:01:36.136Z,0.87
2022-10-23T10:04:03.846Z,2.53
2022-10-23T10:06:33.634Z,1.53
2022-10-23T10:09:06.877Z,0.70
2022-10-23T10:11:38.566Z,0.70
2022-10-23T10:14:28.015Z,1.60
2022-10-23T10:17:01.772Z,0.80
2022-10-23T10:19:40.509Z,0.97
2022-10-23T10:22:19.179Z,1.13
2022-10-23T10:24:57.211Z,0.77
2022-10-23T10:27:42.622Z,0.90
2022-10-23T10:30:16.594Z,2.60
2022-10-23T10:32:51.297Z,1.98
2022-10-23T10:35:38.387Z,1.85
2022-10-23T10:38:21.670Z,1.30
2022-10-23T10:41:15.281Z,1.00
2022-10-23T10:43:52.853Z,0.80
2022-10-23T10:46:31.598Z,0.70
2022-10-23T10:49:08.959Z,1.00
2022-10-23T10:51:48.866Z,0.90
2022-10-23T10:54:44.287Z,1.13
2022-10-23T10:57:26.746Z,1.52
2022-10-23T11:00:03.594Z,1.85
2022-10-23T11:02:38.908Z,1.30
2022-10-23T11:05:19.341Z,1.65
2022-10-23T11:07:55.730Z,0.80
2022-10-23T11:10:23.540Z,2.15
2022-10-23T11:12:52.945Z,1.38
2022-10-23T11:15:26.131Z,1.20
2022-10-23T11:17:57.839Z,1.00
2022-10-23T11:20:39.900Z,1.48
2022-10-23T11:23:31.977Z,1.20
2022-10-23T11:26:16.203Z,0.98
2022-10-23T11:29:03.817Z,0.60
2022-10-23T11:31:39.949Z,0.75
2022-10-23T11:34:35.110Z,1.48
2022-10-23T11:37:04.738Z,1.48
2022-10-23T11:39:34.058Z,1.00
2022-10-23T11:42:14.335Z,0.63
2022-10-23T11:44:45.207Z,1.77
2022-10-23T11:47:36.354Z,1.05
2022-10-23T11:50:15.621Z,0.70
2022-10-23T11:53:13.028Z,1.45
2022-10-23T11:55:57.137Z,0.68
2022-10-23T11:58:31.432Z,1.15
2022-10-23T12:01:05.421Z,1.05
2022-10-23T12:03:41.822Z,1.15
2022-10-23T12:06:23.633Z,2.22
2022-10-23T12:08:55.065Z,0.88
2022-10-23T12:11:28.241Z,1.73
2022-10-23T12:13:56.192Z,0.77
2022-10-23T12:16:35.626Z,1.92
2022-10-23T12:19:18.818Z,1.02
2022-10-23T12:21:47.619Z,1.10
2022-10-23T12:24:31.887Z,1.40
2022-10-23T12:27:09.119Z,1.85
2022-10-23T12:29:53.563Z,1.45
2022-10-23T12:32:34.982Z,1.38
2022-10-23T12:35:34.007Z,0.77
2022-10-23T12:38:14.189Z,0.95
2022-10-23T12:40:42.031Z,0.95
2022-10-23T12:43:24.370Z,0.88
2022-10-23T12:45:52.614Z,1.98
2022-10-23T12:48:23.199Z,1.60
2022-10-23T12:50:52.469Z,2.15
2022-10-23T12:53:21.347Z,1.23
2022-10-23T12:55:52.632Z,1.95
2022-10-23T12:58:21.587Z,1.13
2022-10-23T13:00:54.269Z,1.13
2022-10-23T13:03:26.008Z,1.15
2022-10-23T13:05:55.754Z,1.15
2022-10-23T13:08:24.697Z,0.80
2022-10-23T13:10:52.406Z,1.20
2022-10-23T13:13:24.107Z,1.33
2022-10-23T13:15:51.962Z,1.13
2022-10-23T13:18:19.762Z,1.00
2022-10-23T13:20:59.982Z,1.52
2022-10-23T13:23:32.095Z,1.10
2022-10-23T13:26:01.426Z,1.50
2022-10-23T13:28:33.230Z,2.08
2022-10-23T13:31:23.562Z,1.45
2022-10-23T13:33:53.137Z,1.08
2022-10-23T13:36:24.352Z,2.20
2022-10-23T13:39:03.759Z,2.30
2022-10-23T13:41:37.546Z,1.80
2022-10-23T13:44:05.490Z,1.77
2022-10-23T13:46:33.175Z,2.17
2022-10-23T13:49:00.856Z,3.05
2022-10-23T13:51:32.017Z,1.88
2022-10-23T13:53:59.601Z,0.80
2022-10-23T13:56:28.587Z,0.85
2022-10-23T13:58:56.151Z,1.30
2022-10-23T14:01:27.229Z,1.30
2022-10-23T14:03:55.893Z,1.05
2022-10-23T14:06:23.581Z,1.13
2022-10-23T14:08:52.947Z,0.82
2022-10-23T14:11:21.988Z,1.80
2022-10-23T14:13:49.966Z,1.05
2022-10-23T14:16:20.521Z,1.92
2022-10-23T14:18:48.609Z,1.65
2022-10-23T14:21:19.800Z,0.95
2022-10-23T14:23:48.096Z,1.58
2022-10-23T14:26:19.375Z,1.55
2022-10-23T14:28:47.129Z,1.13
2022-10-23T14:31:15.961Z,1.50
2022-10-23T14:33:44.425Z,1.35
2022-10-23T14:36:12.572Z,1.60
2022-10-23T14:38:40.395Z,1.25
2022-10-23T14:41:12.831Z,1.48
2022-10-23T14:43:42.943Z,1.63
2022-10-23T14:46:12.615Z,1.38
2022-10-23T14:48:42.376Z,1.88
2022-10-23T14:51:18.807Z,1.15
2022-10-23T14:53:46.831Z,1.42
2022-10-23T14:56:15.209Z,1.52
2022-10-23T14:58:44.137Z,2.08
2022-10-23T15:01:11.890Z,1.38
2022-10-23T15:03:39.621Z,1.45
2022-10-23T15:06:08.729Z,2.30
2022-10-23T15:08:36.941Z,2.88
2022-10-23T15:11:08.916Z,1.55
2022-10-23T15:13:39.327Z,1.75
2022-10-23T15:16:10.093Z,1.30
2022-10-23T15:21:11.042Z,1.40
2022-10-23T15:23:41.031Z,1.15
2022-10-23T15:26:10.955Z,1.35
2022-10-23T15:28:39.091Z,1.95
2022-10-23T15:31:24.268Z,1.50
2022-10-23T15:33:51.807Z,1.55
2022-10-23T15:36:19.514Z,1.00
2022-10-23T15:38:47.115Z,1.25
2022-10-23T15:41:16.482Z,1.33
2022-10-23T15:43:44.294Z,1.30
2022-10-23T15:46:13.255Z,1.30
2022-10-23T15:48:40.833Z,1.83
2022-10-23T15:51:08.382Z,1.60
2022-10-23T15:53:36.247Z,6.50
2022-10-23T15:56:03.925Z,2.28
2022-10-23T15:58:31.533Z,1.80
2022-10-23T16:01:02.923Z,2.50
2022-10-23T16:03:32.155Z,3.50
2022-10-23T16:05:59.782Z,3.40
2022-10-23T16:08:27.321Z,3.08
2022-10-23T16:10:54.905Z,1.77
2022-10-23T16:13:22.508Z,2.72
2022-10-23T16:15:50.073Z,3.35
2022-10-23T16:18:18.739Z,1.77
2022-10-23T16:20:48.015Z,2.88
2022-10-23T16:23:15.599Z,2.35
2022-10-23T16:25:43.227Z,1.70
2022-10-23T16:28:10.834Z,2.15
2022-10-23T16:30:41.697Z,2.13
2022-10-23T16:33:09.336Z,3.90
2022-10-23T16:35:37.278Z,4.55
2022-10-23T16:38:06.431Z,2.58
2022-10-23T16:40:34.040Z,2.80
2022-10-23T16:43:01.580Z,4.30
2022-10-23T16:45:29.190Z,2.13
2022-10-23T16:47:56.951Z,4.18
2022-10-23T16:50:24.579Z,2.10
2022-10-23T16:52:55.483Z,2.22
2022-10-23T16:55:24.908Z,3.38
2022-10-23T16:57:52.535Z,2.20
2022-10-23T17:00:22.025Z,4.57
2022-10-23T17:02:49.724Z,2.40
2022-10-23T17:05:17.424Z,3.38
2022-10-23T17:07:45.202Z,4.03
2022-10-23T17:10:13.049Z,3.03
2022-10-23T17:12:41.988Z,4.60
2022-10-23T17:15:10.993Z,3.63
2022-10-23T17:17:38.738Z,3.58
2022-10-23T17:20:07.224Z,3.78
2022-10-23T17:22:35.855Z,2.67
2022-10-23T17:25:03.641Z,3.60
2022-10-23T17:27:31.224Z,3.03
2022-10-23T17:30:00.159Z,3.83
2022-10-23T17:32:27.812Z,3.28
2022-10-23T17:34:55.409Z,5.43
2022-10-23T17:37:23.023Z,3.92
2022-10-23T17:39:50.658Z,4.35
2022-10-23T17:42:18.269Z,4.95
2022-10-23T17:44:45.887Z,6.88
2022-10-23T17:47:34.577Z,4.75
2022-10-23T17:50:02.470Z,4.32
2022-10-23T17:52:30.082Z,2.40
2022-10-23T17:54:57.649Z,2.85
2022-10-23T17:57:25.252Z,4.28
2022-10-23T17:59:52.839Z,3.17
2022-10-23T18:02:20.637Z,4.32
2022-10-23T18:04:49.655Z,2.85
2022-10-23T18:07:17.362Z,3.67
2022-10-23T18:09:46.072Z,3.72
2022-10-23T18:12:13.684Z,2.97
2022-10-23T18:14:41.254Z,2.58
2022-10-23T18:17:08.868Z,5.03
2022-10-23T18:19:36.466Z,4.05
2022-10-23T18:22:05.507Z,4.13
2022-10-23T18:24:33.350Z,3.40
2022-10-23T18:27:01.051Z,4.97
2022-10-23T18:29:28.623Z,2.80
2022-10-23T18:31:56.227Z,4.75
2022-10-23T18:34:25.666Z,3.75
2022-10-23T18:36:55.265Z,3.00
2022-10-23T18:39:25.962Z,2.58
2022-10-23T18:41:56.015Z,3.15
2022-10-23T18:44:25.035Z,3.90
2022-10-23T18:46:52.922Z,4.93
2022-10-23T18:49:21.237Z,3.85
2022-10-23T18:51:49.728Z,3.67
2022-10-23T18:54:18.734Z,3.88
2022-10-23T18:56:48.151Z,4.03
2022-10-23T18:59:18.328Z,3.65
2022-10-23T19:01:46.149Z,4.22
2022-10-23T19:04:15.870Z,3.33
2022-10-23T19:06:43.695Z,4.88
2022-10-23T19:09:14.689Z,3.42
2022-10-23T19:11:43.441Z,4.30
2022-10-23T19:14:12.534Z,4.18
2022-10-23T19:16:44.930Z,4.00
2022-10-23T19:19:16.802Z,4.07
2022-10-23T19:21:45.348Z,5.93
2022-10-23T19:24:16.320Z,4.22
2022-10-23T19:26:45.022Z,4.05
2022-10-23T19:29:18.112Z,4.22
2022-10-23T19:31:49.168Z,5.93
2022-10-23T19:34:19.709Z,3.88
2022-10-23T19:36:47.505Z,4.47
2022-10-23T19:39:15.384Z,6.18
2022-10-23T19:41:43.040Z,4.22
2022-10-23T19:44:10.641Z,6.43
2022-10-23T19:46:39.594Z,4.20
2022-10-23T19:49:08.827Z,4.32
2022-10-23T19:51:36.987Z,5.38
2022-10-23T19:54:05.140Z,5.03
2022-10-23T19:56:32.700Z,6.20
2022-10-23T19:59:00.361Z,7.13
2022-10-23T20:01:28.042Z,5.88
2022-10-23T20:03:57.570Z,5.90
2022-10-23T20:06:27.922Z,5.13
2022-10-23T20:08:56.343Z,5.05
2022-10-23T20:11:28.056Z,4.65
2022-10-23T20:13:56.886Z,5.03
2022-10-23T20:16:27.149Z,5.90
2022-10-23T20:18:54.890Z,5.53
2022-10-23T20:21:24.650Z,5.85
2022-10-23T20:23:52.720Z,5.68
2022-10-23T20:26:23.112Z,3.88
2022-10-23T20:28:54.015Z,3.83
2022-10-23T20:31:23.172Z,6.18
2022-10-23T20:33:51.529Z,7.13
2022-10-23T20:36:26.153Z,5.43
2022-10-23T20:38:54.482Z,5.95
2022-10-23T20:41:24.945Z,6.75
2022-10-23T20:43:52.668Z,4.60
2022-10-23T20:46:20.375Z,6.15
2022-10-23T20:48:47.955Z,6.38
2022-10-23T20:51:17.825Z,5.43
2022-10-23T20:53:47.767Z,5.32
2022-10-23T20:56:17.161Z,5.90
2022-10-23T20:58:45.010Z,4.05
2022-10-23T21:01:16.279Z,5.82
2022-10-23T21:03:45.022Z,7.57
2022-10-23T21:06:14.673Z,6.07
2022-10-23T21:08:43.257Z,6.03
2022-10-23T21:11:14.224Z,5.93
2022-10-23T21:13:42.747Z,5.45
2022-10-23T21:16:15.014Z,6.10
2022-10-23T21:18:46.867Z,6.97
2022-10-23T21:21:17.041Z,5.75
2022-10-23T21:23:45.077Z,5.68
2022-10-23T21:26:14.628Z,6.30
2022-10-23T21:31:37.277Z,6.90
2022-10-23T21:34:05.660Z,9.57
2022-10-23T21:36:34.226Z,6.93
2022-10-23T21:39:03.330Z,6.90
2022-10-23T21:41:32.884Z,7.38
2022-10-23T21:44:02.227Z,4.70
2022-10-23T21:46:33.721Z,6.32
2022-10-23T21:49:02.725Z,6.65
2022-10-23T21:51:42.447Z,6.95
2022-10-23T21:54:17.199Z,8.82
2022-10-23T21:56:47.422Z,7.03
2022-10-23T21:59:20.139Z,4.78
2022-10-23T22:01:54.109Z,8.38
2022-10-23T22:04:23.491Z,5.40
2022-10-23T22:06:54.188Z,7.18
2022-10-23T22:09:22.966Z,4.07
2022-10-23T22:11:51.048Z,6.38
2022-10-23T22:14:19.460Z,7.43
2022-10-23T22:16:47.650Z,8.00
2022-10-23T22:19:17.025Z,8.45
2022-10-23T22:21:49.079Z,8.10
2022-10-23T22:24:17.861Z,6.25
2022-10-23T22:26:49.211Z,9.32
2022-10-23T22:29:20.537Z,6.57
2022-10-23T22:31:49.825Z,5.90
2022-10-23T22:34:34.786Z,6.30
2022-10-23T22:37:12.758Z,6.93
2022-10-23T22:39:41.774Z,7.75
2022-10-23T22:42:10.092Z,10.20
2022-10-23T22:44:39.643Z,6.43
2022-10-23T22:47:07.442Z,6.70
2022-10-23T22:49:35.118Z,7.32
2022-10-23T22:52:02.706Z,5.25
2022-10-23T22:54:31.763Z,7.80
2022-10-23T22:56:59.645Z,8.48
2022-10-23T22:59:30.064Z,7.75
2022-10-23T23:02:00.544Z,7.95
2022-10-23T23:04:38.955Z,10.40
2022-10-23T23:07:08.375Z,7.10
2022-10-23T23:09:41.184Z,8.00
2022-10-23T23:12:10.336Z,6.37
2022-10-23T23:14:40.894Z,7.57
2022-10-23T23:17:10.390Z,10.20
2022-10-23T23:19:38.186Z,6.80
2022-10-23T23:22:06.015Z,6.93
2022-10-23T23:24:33.965Z,6.03
2022-10-23T23:27:03.012Z,5.07
2022-10-23T23:29:30.627Z,7.07
2022-10-23T23:31:58.299Z,6.13
2022-10-23T23:34:26.143Z,7.63
2022-10-23T23:36:54.136Z,5.37
2022-10-23T23:39:21.810Z,3.87
2022-10-23T23:41:49.413Z,5.67
2022-10-23T23:44:18.420Z,5.27
2022-10-23T23:46:46.125Z,8.30
2022-10-23T23:49:13.792Z,4.23
2022-10-23T23:51:41.998Z,6.10
2022-10-23T23:54:09.690Z,5.30
2022-10-23T23:56:37.289Z,4.70
2022-10-23T23:59:05.236Z,4.75
